Time;durP1;ratioP1;P1;durP2;ratioP2;P2;SDS_P1;SDS_P2;PMS_P1;PMS_P2;Temp;Humidity;BMP_temperature;BMP_pressure;BME280_temperature;BME280_humidity;BME280_pressure;Samples;Min_cycle;Max_cycle;Signal;HPM_P1;HPM_P2
2020/12/07 00:01:25;;;;;;;50.13;27.10;;;8.70;99.90;;;;;;5071327;28;20386;-54
2020/12/07 00:03:51;;;;;;;46.90;26.42;;;8.70;99.90;;;;;;5070167;28;20739;-54
2020/12/07 00:06:18;;;;;;;49.53;26.52;;;8.70;99.90;;;;;;5071269;28;20874;-53
2020/12/07 00:08:45;;;;;;;48.10;26.23;;;8.70;99.90;;;;;;5071673;28;20743;-54
2020/12/07 00:11:11;;;;;;;49.58;26.20;;;8.70;99.90;;;;;;5070953;28;20903;-55
2020/12/07 00:13:37;;;;;;;48.42;26.63;;;8.60;99.90;;;;;;5070765;28;20386;-55
2020/12/07 00:16:07;;;;;;;45.03;25.37;;;8.60;99.90;;;;;;5071170;28;20406;-55
2020/12/07 00:18:34;;;;;;;46.00;25.27;;;8.60;99.90;;;;;;5070562;28;20386;-54
2020/12/07 00:21:00;;;;;;;43.25;24.85;;;8.70;99.90;;;;;;5070916;28;20394;-52
2020/12/07 00:23:26;;;;;;;45.80;25.77;;;8.70;99.90;;;;;;5070905;28;20743;-56
2020/12/07 00:25:52;;;;;;;44.90;24.75;;;8.70;99.90;;;;;;5071347;28;20409;-55
2020/12/07 00:28:18;;;;;;;43.13;24.50;;;8.60;99.90;;;;;;5071807;28;20378;-55
2020/12/07 00:30:46;;;;;;;47.90;24.67;;;8.70;99.90;;;;;;5070881;28;20891;-53
2020/12/07 00:33:12;;;;;;;43.65;24.83;;;8.70;99.90;;;;;;5069761;28;20401;-54
2020/12/07 00:35:38;;;;;;;43.67;24.30;;;8.60;99.90;;;;;;5070804;28;20398;-55
2020/12/07 00:38:04;;;;;;;44.90;24.50;;;8.60;99.90;;;;;;5070716;28;20390;-55
2020/12/07 00:40:30;;;;;;;47.38;25.02;;;8.60;99.90;;;;;;5070136;28;20453;-55
2020/12/07 00:42:57;;;;;;;41.65;23.73;;;8.60;99.90;;;;;;5070697;28;20386;-55
2020/12/07 00:45:23;;;;;;;43.42;23.88;;;8.60;99.90;;;;;;5071225;28;20390;-55
2020/12/07 00:47:49;;;;;;;42.42;24.30;;;8.60;99.90;;;;;;5070774;28;20390;-55
2020/12/07 00:50:15;;;;;;;43.65;24.73;;;8.60;99.90;;;;;;5071049;28;20382;-55
2020/12/07 00:52:41;;;;;;;43.28;24.65;;;8.50;99.90;;;;;;5071408;28;20398;-55
2020/12/07 00:55:07;;;;;;;43.87;23.63;;;8.50;99.90;;;;;;5070247;28;20390;-54
2020/12/07 00:57:33;;;;;;;43.17;23.40;;;8.50;99.90;;;;;;5071135;28;20414;-56
2020/12/07 01:00:00;;;;;;;43.00;23.60;;;8.50;99.90;;;;;;5069038;28;20390;-55
2020/12/07 01:02:26;;;;;;;41.58;23.42;;;8.50;99.90;;;;;;5069498;28;20406;-54
2020/12/07 01:04:52;;;;;;;45.70;23.85;;;8.50;99.90;;;;;;5069727;28;20381;-55
2020/12/07 01:07:18;;;;;;;42.38;23.23;;;8.60;99.90;;;;;;5070373;28;20405;-53
2020/12/07 01:09:44;;;;;;;46.45;24.42;;;8.50;99.90;;;;;;5070394;28;20405;-56
2020/12/07 01:12:11;;;;;;;40.13;23.00;;;8.60;99.90;;;;;;5070549;28;20428;-55
2020/12/07 01:14:37;;;;;;;41.37;23.17;;;8.60;99.90;;;;;;5070246;28;20389;-55
2020/12/07 01:17:03;;;;;;;42.93;23.23;;;8.60;99.90;;;;;;5070276;28;20406;-55
2020/12/07 01:19:29;;;;;;;41.03;22.40;;;8.60;99.90;;;;;;5070670;28;20385;-55
2020/12/07 01:21:55;;;;;;;43.15;24.10;;;8.50;99.90;;;;;;5070258;28;20390;-53
2020/12/07 01:24:21;;;;;;;40.92;23.10;;;8.50;99.90;;;;;;5070746;28;20385;-56
2020/12/07 01:26:48;;;;;;;40.65;22.80;;;8.50;99.90;;;;;;5070914;28;20401;-55
2020/12/07 01:29:14;;;;;;;40.25;22.25;;;8.50;99.90;;;;;;5070095;28;20712;-52
2020/12/07 01:31:40;;;;;;;43.33;22.52;;;8.50;99.90;;;;;;5070219;28;20390;-55
2020/12/07 01:34:06;;;;;;;40.13;22.43;;;8.50;99.90;;;;;;5068949;28;20402;-55
2020/12/07 01:36:32;;;;;;;40.72;22.40;;;8.50;99.90;;;;;;5069703;28;20459;-55
2020/12/07 01:38:58;;;;;;;38.80;21.75;;;8.50;99.90;;;;;;5070027;28;20382;-55
2020/12/07 01:41:24;;;;;;;38.58;21.27;;;8.60;99.90;;;;;;5069591;28;20389;-54
2020/12/07 01:43:50;;;;;;;38.72;21.45;;;8.50;99.90;;;;;;5069161;28;20405;-55
2020/12/07 01:46:22;;;;;;;38.17;21.60;;;8.50;99.90;;;;;;5070044;28;20397;-55
2020/12/07 01:48:49;;;;;;;38.05;21.85;;;8.50;99.90;;;;;;5069824;28;20382;-54
2020/12/07 01:51:15;;;;;;;38.72;21.15;;;8.50;99.90;;;;;;5069795;28;20378;-55
2020/12/07 01:53:42;;;;;;;37.47;21.13;;;8.50;99.90;;;;;;5073419;28;20511;-54
2020/12/07 01:56:10;;;;;;;36.13;20.70;;;8.50;99.90;;;;;;5073347;28;20495;-55
2020/12/07 01:58:36;;;;;;;37.05;20.17;;;8.50;99.90;;;;;;5072703;28;20378;-55
2020/12/07 02:01:06;;;;;;;35.70;21.02;;;8.50;99.90;;;;;;5072050;28;20390;-55
2020/12/07 02:03:32;;;;;;;36.33;20.85;;;8.50;99.90;;;;;;5068169;28;20396;-55
2020/12/07 02:05:58;;;;;;;34.35;20.40;;;8.50;99.90;;;;;;5068937;28;20722;-54
2020/12/07 02:08:24;;;;;;;36.65;20.23;;;8.50;99.90;;;;;;5064180;28;20389;-55
2020/12/07 02:10:50;;;;;;;34.47;19.87;;;8.50;99.90;;;;;;5074315;28;20402;-55
2020/12/07 02:13:16;;;;;;;35.73;19.97;;;8.50;99.90;;;;;;5073945;28;20386;-55
2020/12/07 02:15:43;;;;;;;34.45;19.58;;;8.50;99.90;;;;;;5074035;28;20370;-56
2020/12/07 02:18:09;;;;;;;32.33;19.67;;;8.50;99.90;;;;;;5073643;28;20468;-56
2020/12/07 02:20:35;;;;;;;36.88;20.17;;;8.40;99.90;;;;;;5073617;28;20386;-55
2020/12/07 02:23:01;;;;;;;34.00;19.48;;;8.40;99.90;;;;;;5073219;28;20389;-55
2020/12/07 02:25:28;;;;;;;34.38;19.77;;;8.40;99.90;;;;;;5073880;28;20882;-54
2020/12/07 02:27:54;;;;;;;36.05;19.70;;;8.40;99.90;;;;;;5074042;28;20401;-54
2020/12/07 02:30:24;;;;;;;34.38;19.85;;;8.40;99.90;;;;;;5073486;28;20386;-55
2020/12/07 02:32:51;;;;;;;33.42;19.92;;;8.40;99.90;;;;;;5072348;28;20394;-54
2020/12/07 02:35:17;;;;;;;34.73;19.73;;;8.40;99.90;;;;;;5073030;28;20394;-55
2020/12/07 02:37:44;;;;;;;35.33;20.05;;;8.40;99.90;;;;;;5073195;28;20406;-55
2020/12/07 02:40:13;;;;;;;33.28;19.52;;;8.40;99.90;;;;;;5071666;28;20378;-55
2020/12/07 02:42:40;;;;;;;37.43;21.00;;;8.40;99.90;;;;;;5073229;28;20743;-56
2020/12/07 02:45:07;;;;;;;35.90;20.23;;;8.40;99.90;;;;;;5073195;28;20390;-56
2020/12/07 02:47:33;;;;;;;35.13;19.63;;;8.40;99.90;;;;;;5071365;28;20420;-55
2020/12/07 02:50:00;;;;;;;34.47;20.10;;;8.50;99.90;;;;;;5071515;28;20382;-55
2020/12/07 02:52:27;;;;;;;36.20;20.40;;;8.40;99.90;;;;;;5073122;28;20393;-54
2020/12/07 02:54:56;;;;;;;35.35;20.90;;;8.40;99.90;;;;;;5073129;28;20393;-56
2020/12/07 02:57:23;;;;;;;39.90;20.67;;;8.40;99.90;;;;;;5073235;28;20417;-55
2020/12/07 02:59:49;;;;;;;32.73;20.00;;;8.40;99.90;;;;;;5072914;28;20386;-54
2020/12/07 03:02:16;;;;;;;42.85;22.05;;;8.30;99.90;;;;;;5072518;28;20394;-55
2020/12/07 03:04:42;;;;;;;37.30;20.88;;;8.30;99.90;;;;;;5071458;28;20390;-52
2020/12/07 03:07:08;;;;;;;39.03;20.48;;;8.30;99.90;;;;;;5072147;28;20397;-55
2020/12/07 03:09:34;;;;;;;39.50;21.67;;;8.30;99.90;;;;;;5072563;28;20887;-56
2020/12/07 03:12:00;;;;;;;41.95;20.98;;;8.30;99.90;;;;;;5072421;28;20398;-55
2020/12/07 03:14:30;;;;;;;38.92;21.85;;;8.30;99.90;;;;;;5072746;28;20394;-56
2020/12/07 03:16:56;;;;;;;37.42;20.70;;;8.20;99.90;;;;;;5072264;28;20410;-55
2020/12/07 03:19:25;;;;;;;41.17;21.58;;;8.20;99.90;;;;;;5072104;28;20393;-56
2020/12/07 03:21:51;;;;;;;38.63;21.23;;;8.20;99.90;;;;;;5072631;28;20394;-55
2020/12/07 03:24:17;;;;;;;36.08;21.10;;;8.20;99.90;;;;;;5072349;28;20770;-55
2020/12/07 03:26:43;;;;;;;36.10;20.55;;;8.20;99.90;;;;;;5071928;28;20394;-56
2020/12/07 03:29:10;;;;;;;37.85;20.77;;;8.20;99.90;;;;;;5071511;28;20407;-56
2020/12/07 03:31:37;;;;;;;37.15;20.35;;;8.20;99.90;;;;;;5072469;28;20378;-54
2020/12/07 03:34:04;;;;;;;37.25;19.98;;;8.20;99.90;;;;;;5071173;28;20402;-55
2020/12/07 03:36:30;;;;;;;35.50;20.60;;;8.20;99.90;;;;;;5072000;28;20410;-55
2020/12/07 03:38:59;;;;;;;36.63;19.83;;;8.20;99.90;;;;;;5071729;28;20446;-56
2020/12/07 03:41:27;;;;;;;37.40;20.13;;;8.20;99.90;;;;;;5070697;28;20496;-55
2020/12/07 03:43:54;;;;;;;35.30;19.73;;;8.20;99.90;;;;;;5072336;28;20773;-55
2020/12/07 03:46:20;;;;;;;36.05;20.40;;;8.20;99.90;;;;;;5071334;28;20398;-55
2020/12/07 03:48:49;;;;;;;37.40;20.50;;;8.20;99.90;;;;;;5072151;28;20405;-55
2020/12/07 03:51:15;;;;;;;34.65;19.70;;;8.10;99.90;;;;;;5071468;28;20401;-54
2020/12/07 03:53:42;;;;;;;34.60;19.47;;;8.20;99.90;;;;;;5070932;28;20739;-55
2020/12/07 03:56:09;;;;;;;32.47;19.73;;;8.20;99.90;;;;;;5071356;28;20389;-55
2020/12/07 03:58:35;;;;;;;36.88;19.42;;;8.20;99.90;;;;;;5071515;28;20383;-56
2020/12/07 04:01:02;;;;;;;33.25;19.00;;;8.10;99.90;;;;;;5071166;28;20413;-55
2020/12/07 04:03:29;;;;;;;39.40;20.05;;;8.10;99.90;;;;;;5070906;28;20397;-55
2020/12/07 04:06:23;;;;;;;35.17;19.42;;;8.10;99.90;;;;;;5071478;28;20401;-56
2020/12/07 04:08:42;;;;;;;34.20;19.58;;;8.10;99.90;;;;;;5071220;28;20405;-55
2020/12/07 04:11:08;;;;;;;35.95;19.42;;;8.10;99.90;;;;;;5070659;28;20413;-55
2020/12/07 04:13:34;;;;;;;35.55;19.23;;;8.10;99.90;;;;;;5071668;28;20386;-55
2020/12/07 04:16:03;;;;;;;34.70;19.00;;;8.10;99.90;;;;;;5071173;28;20401;-55
2020/12/07 04:18:29;;;;;;;32.53;18.60;;;8.10;99.90;;;;;;5069762;28;20735;-55
2020/12/07 04:21:00;;;;;;;34.10;18.42;;;8.10;99.90;;;;;;5071239;28;20383;-55
2020/12/07 04:23:28;;;;;;;34.88;18.40;;;8.10;99.90;;;;;;5071475;28;20731;-54
2020/12/07 04:25:54;;;;;;;31.55;18.30;;;8.10;99.90;;;;;;5070411;28;20398;-55
2020/12/07 04:28:21;;;;;;;34.40;18.73;;;8.10;99.90;;;;;;5070922;28;20398;-55
2020/12/07 04:30:48;;;;;;;32.58;18.98;;;8.00;99.90;;;;;;5071177;28;20409;-55
2020/12/07 04:33:14;;;;;;;34.47;18.83;;;8.10;99.90;;;;;;5069750;28;20398;-57
2020/12/07 04:35:40;;;;;;;35.65;18.63;;;8.00;99.90;;;;;;5070532;28;20378;-55
2020/12/07 04:38:07;;;;;;;32.28;17.90;;;8.00;99.90;;;;;;5069750;28;20409;-55
2020/12/07 04:40:34;;;;;;;33.90;18.13;;;8.10;99.90;;;;;;5070421;28;20397;-53
2020/12/07 04:43:00;;;;;;;30.20;18.43;;;8.00;99.90;;;;;;5065853;28;20401;-55
2020/12/07 04:45:30;;;;;;;29.77;17.75;;;8.00;99.90;;;;;;5052772;28;20393;-55
2020/12/07 04:47:56;;;;;;;32.30;18.15;;;8.00;99.90;;;;;;5070249;28;20449;-55
2020/12/07 04:50:22;;;;;;;33.33;19.10;;;8.00;99.90;;;;;;5069899;28;20905;-55
2020/12/07 04:52:49;;;;;;;33.17;18.55;;;8.00;99.90;;;;;;5069978;28;20382;-54
2020/12/07 04:55:15;;;;;;;31.58;18.63;;;8.00;99.90;;;;;;5071034;28;20374;-56
2020/12/07 04:57:42;;;;;;;34.75;18.85;;;8.00;99.90;;;;;;5071078;28;20418;-55
2020/12/07 05:00:08;;;;;;;30.88;18.30;;;8.00;99.90;;;;;;5052898;28;20842;-55
2020/12/07 05:02:37;;;;;;;33.03;18.73;;;8.00;99.90;;;;;;5069705;28;20990;-56
2020/12/07 05:05:07;;;;;;;30.95;17.90;;;8.00;99.90;;;;;;5070427;28;20731;-56
2020/12/07 05:07:36;;;;;;;30.48;17.65;;;8.00;99.90;;;;;;5069296;28;20453;-55
2020/12/07 05:10:11;;;;;;;29.50;17.57;;;8.00;99.90;;;;;;5070430;28;20398;-56
2020/12/07 05:12:45;;;;;;;30.98;17.85;;;8.00;99.90;;;;;;5053508;28;20856;-56
2020/12/07 05:15:13;;;;;;;32.17;17.77;;;8.00;99.90;;;;;;5050772;28;20383;-56
2020/12/07 05:17:40;;;;;;;30.60;17.50;;;7.90;99.90;;;;;;5051060;28;20760;-55
2020/12/07 05:20:06;;;;;;;29.50;17.50;;;8.00;99.90;;;;;;5070049;28;20420;-55
2020/12/07 05:22:34;;;;;;;31.88;17.80;;;7.90;99.90;;;;;;5069532;28;20382;-58
2020/12/07 05:25:04;;;;;;;31.70;16.50;;;7.90;99.90;;;;;;5070535;28;20390;-55
2020/12/07 05:27:30;;;;;;;31.33;17.58;;;7.90;99.90;;;;;;5070420;28;20390;-55
2020/12/07 05:30:20;;;;;;;29.55;16.73;;;7.90;99.90;;;;;;5069114;28;20374;-54
2020/12/07 05:32:46;;;;;;;29.42;17.45;;;7.90;99.90;;;;;;5068548;28;20862;-59
2020/12/07 05:35:12;;;;;;;29.40;17.53;;;7.90;99.90;;;;;;5070149;28;20871;-54
2020/12/07 05:37:39;;;;;;;28.25;16.75;;;7.90;99.90;;;;;;5059068;28;20933;-55
2020/12/07 05:40:07;;;;;;;27.33;16.45;;;7.90;99.90;;;;;;5050379;28;20382;-56
2020/12/07 05:42:33;;;;;;;30.83;17.53;;;7.80;99.90;;;;;;5067521;28;20739;-55
2020/12/07 05:45:00;;;;;;;30.30;17.53;;;7.90;99.90;;;;;;5070686;28;20386;-55
2020/12/07 05:47:26;;;;;;;28.23;17.10;;;7.80;99.90;;;;;;5070158;28;20385;-56
2020/12/07 05:49:53;;;;;;;31.60;16.50;;;7.80;99.90;;;;;;5070582;28;20732;-55
2020/12/07 05:52:35;;;;;;;32.38;16.98;;;7.80;99.90;;;;;;5070342;28;20385;-56
2020/12/07 05:55:02;;;;;;;31.08;17.02;;;7.80;99.90;;;;;;5070514;28;20370;-56
2020/12/07 05:57:29;;;;;;;32.53;16.95;;;7.80;99.90;;;;;;5069796;28;20940;-57
2020/12/07 06:00:04;;;;;;;30.00;16.97;;;7.80;99.90;;;;;;5069092;28;20405;-57
2020/12/07 06:02:31;;;;;;;29.70;17.20;;;7.80;99.90;;;;;;5067896;28;20493;-57
2020/12/07 06:04:59;;;;;;;29.38;16.90;;;7.80;99.90;;;;;;5068902;28;20366;-57
2020/12/07 06:07:28;;;;;;;28.03;17.30;;;7.80;99.90;;;;;;5043829;28;20379;-56
2020/12/07 06:09:55;;;;;;;29.75;16.58;;;7.80;99.90;;;;;;5051219;28;20477;-56
2020/12/07 06:12:24;;;;;;;28.27;16.97;;;7.80;99.90;;;;;;5067561;28;20390;-56
2020/12/07 06:14:50;;;;;;;29.42;16.50;;;7.80;99.90;;;;;;5068845;28;20394;-57
2020/12/07 06:17:29;;;;;;;29.17;16.10;;;7.80;99.90;;;;;;5068229;28;20406;-58
2020/12/07 06:19:55;;;;;;;27.40;16.38;;;7.80;99.90;;;;;;5066562;28;20390;-56
2020/12/07 06:22:22;;;;;;;25.65;15.68;;;7.90;99.90;;;;;;5067882;28;20386;-56
2020/12/07 06:24:50;;;;;;;30.20;15.73;;;7.80;99.90;;;;;;5068891;28;20759;-58
2020/12/07 06:27:17;;;;;;;26.65;15.55;;;7.90;99.90;;;;;;5061815;28;20406;-57
2020/12/07 06:30:07;;;;;;;27.50;15.80;;;7.90;99.90;;;;;;5063470;28;20415;-57
2020/12/07 06:32:43;;;;;;;27.45;14.80;;;7.90;99.90;;;;;;5062157;28;20402;-57
2020/12/07 06:35:10;;;;;;;27.00;15.40;;;7.90;99.90;;;;;;5065406;28;20390;-57
2020/12/07 06:37:41;;;;;;;27.92;15.30;;;7.90;99.90;;;;;;5068749;28;20414;-57
2020/12/07 06:40:08;;;;;;;28.15;15.38;;;7.90;99.90;;;;;;5072221;28;20438;-56
2020/12/07 06:42:39;;;;;;;32.40;16.00;;;7.90;99.90;;;;;;5072087;28;20446;-57
2020/12/07 06:45:06;;;;;;;27.33;15.82;;;7.90;99.90;;;;;;5073468;28;20375;-57
2020/12/07 06:47:32;;;;;;;26.40;14.67;;;7.90;99.90;;;;;;5055330;28;20402;-53
2020/12/07 06:50:15;;;;;;;26.27;15.35;;;7.90;99.90;;;;;;5072124;28;20385;-57
2020/12/07 06:52:42;;;;;;;25.98;15.80;;;7.90;99.90;;;;;;5056801;28;20430;-57
2020/12/07 06:55:12;;;;;;;26.50;15.10;;;7.80;99.90;;;;;;5071604;28;20770;-57
2020/12/07 06:57:49;;;;;;;27.55;15.50;;;7.80;99.90;;;;;;5059532;28;20423;-54
2020/12/07 07:00:22;;;;;;;29.83;15.55;;;7.80;99.90;;;;;;5052486;28;20395;-57
2020/12/07 07:02:49;;;;;;;30.83;16.33;;;7.80;99.90;;;;;;5071253;28;20753;-57
2020/12/07 07:05:19;;;;;;;30.50;15.43;;;7.80;99.90;;;;;;5072315;28;20385;-55
2020/12/07 07:07:48;;;;;;;27.13;15.50;;;7.80;99.90;;;;;;5072184;28;20392;-53
2020/12/07 07:10:15;;;;;;;29.92;14.93;;;7.80;99.90;;;;;;5072225;28;20394;-57
2020/12/07 07:12:42;;;;;;;28.48;14.68;;;7.80;99.90;;;;;;5055562;28;20718;-56
2020/12/07 07:15:09;;;;;;;27.65;14.90;;;7.80;99.90;;;;;;5051509;28;20380;-57
2020/12/07 07:17:37;;;;;;;27.17;14.27;;;7.80;99.90;;;;;;5051601;28;20416;-56
2020/12/07 07:20:05;;;;;;;31.17;14.77;;;7.80;99.90;;;;;;5053010;28;20852;-57
2020/12/07 07:22:32;;;;;;;26.02;14.38;;;7.80;99.90;;;;;;5051633;28;20718;-57
2020/12/07 07:30:12;;;;;;;28.05;14.80;;;7.90;99.90;;;;;;5063598;28;20389;-57
2020/12/07 07:32:42;;;;;;;24.60;13.77;;;7.80;99.90;;;;;;5067818;28;20873;-56
2020/12/07 07:35:09;;;;;;;28.27;14.57;;;7.80;99.90;;;;;;5054456;28;20878;-57
2020/12/07 07:37:36;;;;;;;29.05;13.55;;;7.80;99.90;;;;;;5070635;28;20398;-57
2020/12/07 07:40:24;;;;;;;24.65;13.75;;;7.70;99.90;;;;;;5070930;28;20886;-56
2020/12/07 07:42:53;;;;;;;24.77;13.20;;;7.80;99.90;;;;;;5071722;28;20387;-56
2020/12/07 07:45:22;;;;;;;22.73;13.40;;;7.80;99.90;;;;;;5072218;28;20386;-57
2020/12/07 08:15:41;;;;;;;25.02;12.98;;;7.80;99.90;;;;;;5078284;28;20386;-57
2020/12/07 08:18:08;;;;;;;22.77;12.27;;;7.70;99.90;;;;;;5070805;28;20775;-57
2020/12/07 08:20:39;;;;;;;24.80;12.88;;;7.80;99.90;;;;;;5071450;28;20393;-57
2020/12/07 08:23:06;;;;;;;22.90;12.27;;;7.80;99.90;;;;;;5070802;28;20715;-57
2020/12/07 08:26:02;;;;;;;24.17;12.52;;;7.80;99.90;;;;;;5070673;28;20711;-56
2020/12/07 08:28:32;;;;;;;23.75;12.45;;;7.80;99.90;;;;;;5070834;28;20407;-57
2020/12/07 08:31:14;;;;;;;22.08;12.45;;;7.80;99.90;;;;;;5070787;28;20743;-57
2020/12/07 08:34:00;;;;;;;22.75;12.27;;;7.80;99.90;;;;;;5069853;28;20394;-57
2020/12/07 08:36:28;;;;;;;21.77;12.27;;;7.80;99.90;;;;;;5064927;28;20393;-56
2020/12/07 08:38:54;;;;;;;23.42;12.50;;;7.80;99.90;;;;;;5069482;28;20402;-57
2020/12/07 08:41:22;;;;;;;23.33;12.30;;;7.80;99.90;;;;;;5069899;28;20393;-57
2020/12/07 08:43:50;;;;;;;22.80;12.20;;;7.80;99.90;;;;;;5070357;28;20398;-56
2020/12/07 08:46:21;;;;;;;22.20;11.88;;;7.80;99.90;;;;;;5065896;28;20463;-57
2020/12/07 08:48:47;;;;;;;24.65;12.73;;;7.80;99.90;;;;;;5059684;28;20914;-57
2020/12/07 08:51:13;;;;;;;23.05;12.82;;;7.80;99.90;;;;;;5068568;28;20386;-58
2020/12/07 08:53:40;;;;;;;24.35;12.10;;;7.80;99.90;;;;;;5068606;28;20410;-58
2020/12/07 08:56:07;;;;;;;24.30;12.93;;;7.80;99.90;;;;;;5068692;28;20397;-58
2020/12/07 08:58:33;;;;;;;24.67;13.07;;;7.80;99.90;;;;;;5070641;28;20414;-57
2020/12/07 09:01:01;;;;;;;24.10;13.05;;;7.80;99.90;;;;;;5069406;28;20386;-58
2020/12/07 09:03:27;;;;;;;23.60;12.77;;;7.80;99.90;;;;;;5063281;28;21311;-58
2020/12/07 09:05:53;;;;;;;25.17;13.40;;;7.80;99.90;;;;;;5067393;28;20453;-58
2020/12/07 09:08:19;;;;;;;26.83;13.07;;;7.80;99.90;;;;;;5067669;28;20413;-58
2020/12/07 09:10:45;;;;;;;25.08;13.48;;;7.70;99.90;;;;;;5065733;28;20392;-57
2020/12/07 09:13:11;;;;;;;25.80;13.15;;;7.70;99.90;;;;;;5068270;28;20397;-57
2020/12/07 09:15:37;;;;;;;26.98;14.27;;;7.70;99.90;;;;;;5070087;28;20739;-57
2020/12/07 09:18:04;;;;;;;29.00;14.27;;;7.70;99.90;;;;;;5069740;28;20766;-57
2020/12/07 09:20:30;;;;;;;25.88;13.32;;;7.60;99.90;;;;;;5069694;28;20395;-57
2020/12/07 09:22:56;;;;;;;27.13;13.70;;;7.60;99.90;;;;;;5069696;28;20393;-57
2020/12/07 09:25:22;;;;;;;28.95;13.68;;;7.60;99.90;;;;;;5068884;28;20766;-58
2020/12/07 09:27:48;;;;;;;25.67;13.40;;;7.60;99.90;;;;;;5070851;28;20404;-58
2020/12/07 09:30:14;;;;;;;25.65;13.55;;;7.70;99.90;;;;;;5070137;28;20382;-57
2020/12/07 09:32:40;;;;;;;27.58;13.70;;;7.70;99.90;;;;;;5068543;28;20394;-57
2020/12/07 09:35:08;;;;;;;25.55;13.77;;;7.70;99.90;;;;;;5068675;28;20378;-57
2020/12/07 09:37:35;;;;;;;31.05;14.27;;;7.70;99.90;;;;;;5068508;28;20412;-56
2020/12/07 09:40:03;;;;;;;30.42;14.05;;;7.70;99.90;;;;;;5069777;28;20386;-57
2020/12/07 09:42:29;;;;;;;26.00;13.55;;;7.60;99.90;;;;;;5069515;28;20944;-58
2020/12/07 09:44:55;;;;;;;25.65;13.30;;;7.70;99.90;;;;;;5069395;28;20469;-58
2020/12/07 09:47:24;;;;;;;31.38;13.57;;;7.70;99.90;;;;;;5069906;28;20405;-57
2020/12/07 09:49:50;;;;;;;23.20;12.73;;;7.70;99.90;;;;;;5069440;28;20398;-57
2020/12/07 09:52:16;;;;;;;26.17;13.53;;;7.70;99.90;;;;;;5070217;28;20394;-57
2020/12/07 09:54:42;;;;;;;29.55;14.18;;;7.60;99.90;;;;;;5069887;28;20397;-57
2020/12/07 09:57:08;;;;;;;27.52;13.65;;;7.70;99.90;;;;;;5069682;28;20874;-57
2020/12/07 09:59:35;;;;;;;25.27;13.30;;;7.70;99.90;;;;;;5069383;28;20910;-58
2020/12/07 10:02:02;;;;;;;26.17;13.68;;;7.60;99.90;;;;;;5069811;28;20808;-57
2020/12/07 10:04:28;;;;;;;26.30;13.90;;;7.60;99.90;;;;;;5068491;28;20390;-58
2020/12/07 10:06:54;;;;;;;26.33;13.87;;;7.60;99.90;;;;;;5070060;28;20389;-58
2020/12/07 10:09:21;;;;;;;30.65;14.38;;;7.60;99.90;;;;;;5067556;28;20406;-56
2020/12/07 10:11:47;;;;;;;30.92;14.85;;;7.60;99.90;;;;;;5062769;28;20427;-56
2020/12/07 10:14:14;;;;;;;29.10;14.70;;;7.60;99.90;;;;;;5065656;28;20392;-57
2020/12/07 10:16:46;;;;;;;29.40;15.10;;;7.50;99.90;;;;;;5065914;28;20385;-56
2020/12/07 10:19:12;;;;;;;32.85;15.35;;;7.50;99.90;;;;;;5069523;28;20407;-57
2020/12/07 10:21:39;;;;;;;29.95;15.00;;;7.50;99.90;;;;;;5072400;28;20385;-57
2020/12/07 10:24:05;;;;;;;26.88;14.23;;;7.50;99.90;;;;;;5073239;28;20436;-58
2020/12/07 10:26:32;;;;;;;25.73;14.47;;;7.50;99.90;;;;;;5073072;28;20432;-56
2020/12/07 10:28:58;;;;;;;33.80;15.25;;;7.40;99.90;;;;;;5072524;28;20390;-56
2020/12/07 10:31:24;;;;;;;25.55;13.40;;;7.40;99.90;;;;;;5072481;28;20377;-56
2020/12/07 10:33:50;;;;;;;23.00;13.23;;;7.40;99.90;;;;;;5068812;28;20885;-57
2020/12/07 10:36:17;;;;;;;26.88;13.27;;;7.40;99.90;;;;;;5071576;28;20393;-63
2020/12/07 10:38:44;;;;;;;22.05;12.95;;;7.40;99.90;;;;;;5071053;28;20421;-56
2020/12/07 10:41:24;;;;;;;135.33;69.10;;;7.40;99.90;;;;;;5072507;28;20386;-56
2020/12/07 10:43:51;;;;;;;46.30;28.98;;;7.40;99.90;;;;;;5071661;28;20390;-57
2020/12/07 10:46:17;;;;;;;35.38;20.40;;;7.40;99.90;;;;;;5068083;28;20745;-57
2020/12/07 10:48:43;;;;;;;25.00;13.75;;;7.40;99.90;;;;;;5071814;28;20394;-57
2020/12/07 10:51:13;;;;;;;24.02;13.48;;;7.40;99.90;;;;;;5072072;28;20398;-55
2020/12/07 10:53:39;;;;;;;24.65;13.88;;;7.40;99.90;;;;;;5071898;28;20747;-56
2020/12/07 10:56:09;;;;;;;32.42;19.52;;;7.40;99.90;;;;;;5071825;28;20398;-57
2020/12/07 10:58:38;;;;;;;24.10;13.52;;;7.40;99.90;;;;;;5071375;28;20422;-56
2020/12/07 11:01:05;;;;;;;25.30;14.55;;;7.40;99.90;;;;;;5069530;28;20401;-57
2020/12/07 11:03:31;;;;;;;22.40;13.30;;;7.40;99.90;;;;;;5068367;28;20390;-56
2020/12/07 11:05:58;;;;;;;27.70;15.20;;;7.40;99.90;;;;;;5072146;28;20378;-57
2020/12/07 11:08:36;;;;;;;26.95;14.35;;;7.40;99.90;;;;;;5071394;28;20386;-57
2020/12/07 11:11:02;;;;;;;29.80;16.27;;;7.40;99.90;;;;;;5071675;28;20397;-57
2020/12/07 11:13:30;;;;;;;30.90;15.90;;;7.40;99.90;;;;;;5072340;28;20405;-57
2020/12/07 11:16:05;;;;;;;29.90;14.67;;;7.40;99.90;;;;;;5071627;28;20378;-57
2020/12/07 11:18:35;;;;;;;28.10;15.05;;;7.40;99.90;;;;;;5071122;28;20425;-57
2020/12/07 11:21:01;;;;;;;32.13;17.67;;;7.40;99.90;;;;;;5070818;28;20893;-57
2020/12/07 11:23:27;;;;;;;47.00;29.17;;;7.40;99.90;;;;;;5071284;28;20394;-57
2020/12/07 11:25:53;;;;;;;37.33;21.52;;;7.50;99.90;;;;;;5070240;28;20405;-57
2020/12/07 11:28:19;;;;;;;28.27;14.88;;;7.40;99.90;;;;;;5070985;28;20390;-57
2020/12/07 11:30:46;;;;;;;30.55;16.90;;;7.40;99.90;;;;;;5071559;28;20882;-57
2020/12/07 11:33:12;;;;;;;33.30;19.17;;;7.40;99.90;;;;;;5070435;28;20390;-56
2020/12/07 11:35:38;;;;;;;37.07;15.87;;;7.40;99.90;;;;;;5071525;28;20891;-57
2020/12/07 11:38:11;;;;;;;93.70;57.35;;;7.40;99.90;;;;;;5070697;28;20397;-57
2020/12/07 11:43:35;;;;;;;26.50;13.70;;;7.40;99.90;;;;;;5076674;28;20489;-57
2020/12/07 11:46:01;;;;;;;48.03;29.95;;;7.40;99.90;;;;;;5071367;28;20398;-56
2020/12/07 11:48:27;;;;;;;33.35;19.70;;;7.30;99.90;;;;;;5066981;28;20394;-57
2020/12/07 11:50:53;;;;;;;26.30;13.80;;;7.30;99.90;;;;;;5071547;28;20894;-57
2020/12/07 11:53:19;;;;;;;33.38;21.65;;;7.30;99.90;;;;;;5063459;28;20916;-56
2020/12/07 11:55:46;;;;;;;32.15;17.75;;;7.30;99.90;;;;;;5071589;28;20914;-63
2020/12/07 11:58:12;;;;;;;23.77;13.30;;;7.30;99.90;;;;;;5071273;28;20414;-54
2020/12/07 12:00:38;;;;;;;29.30;16.90;;;7.30;99.90;;;;;;5071712;28;20398;-55
2020/12/07 12:03:05;;;;;;;24.23;13.68;;;7.30;99.90;;;;;;5070434;28;20402;-54
2020/12/07 12:05:31;;;;;;;25.95;13.90;;;7.30;99.90;;;;;;5071134;28;20382;-54
2020/12/07 12:07:57;;;;;;;25.60;14.18;;;7.30;99.90;;;;;;5060932;28;20450;-54
2020/12/07 12:10:23;;;;;;;33.85;20.00;;;7.30;99.90;;;;;;5062996;28;20472;-55
2020/12/07 12:12:49;;;;;;;28.95;14.50;;;7.30;99.90;;;;;;5070396;28;20390;-55
2020/12/07 12:15:16;;;;;;;24.90;14.38;;;7.20;99.90;;;;;;5057143;28;20384;-55
2020/12/07 12:17:42;;;;;;;25.00;13.02;;;7.20;99.90;;;;;;5069162;28;20401;-56
2020/12/07 12:20:08;;;;;;;26.42;13.95;;;7.20;99.90;;;;;;5070287;28;20413;-54
2020/12/07 12:22:34;;;;;;;27.48;14.35;;;7.30;99.90;;;;;;5070795;28;20385;-55
2020/12/07 12:25:03;;;;;;;27.25;14.23;;;7.20;99.90;;;;;;5058457;28;20388;-55
2020/12/07 12:27:29;;;;;;;23.63;13.35;;;7.20;99.90;;;;;;5067763;28;20858;-56
2020/12/07 12:29:56;;;;;;;25.48;13.35;;;7.30;99.90;;;;;;5065925;28;20402;-55
2020/12/07 12:32:22;;;;;;;24.73;13.63;;;7.20;99.90;;;;;;5058113;28;20385;-54
2020/12/07 12:34:48;;;;;;;21.90;12.90;;;7.30;99.90;;;;;;5069009;28;20401;-54
2020/12/07 12:37:15;;;;;;;25.38;13.30;;;7.20;99.90;;;;;;5066288;28;20386;-54
2020/12/07 12:39:41;;;;;;;22.42;12.82;;;7.20;99.90;;;;;;5065921;28;20418;-55
2020/12/07 12:42:07;;;;;;;21.27;12.30;;;7.20;99.90;;;;;;5069585;28;20390;-52
2020/12/07 12:44:33;;;;;;;23.02;12.65;;;7.20;99.90;;;;;;5068853;28;20382;-53
2020/12/07 12:46:59;;;;;;;25.55;12.73;;;7.20;99.90;;;;;;5069078;28;20405;-53
2020/12/07 12:49:25;;;;;;;23.45;12.98;;;7.20;99.90;;;;;;5065922;28;20389;-54
2020/12/07 12:51:52;;;;;;;23.42;12.60;;;7.20;99.90;;;;;;5069513;28;20405;-55
2020/12/07 12:54:18;;;;;;;28.88;14.23;;;7.20;99.90;;;;;;5070315;28;20398;-54
2020/12/07 12:56:44;;;;;;;23.67;12.70;;;7.30;99.90;;;;;;5068689;28;20469;-52
2020/12/07 12:59:10;;;;;;;23.40;13.17;;;7.20;99.90;;;;;;5070248;28;20416;-54
2020/12/07 13:01:37;;;;;;;20.15;12.68;;;7.20;99.90;;;;;;5066694;28;20440;-55
2020/12/07 13:04:04;;;;;;;22.95;12.20;;;7.20;99.90;;;;;;5065564;28;20394;-53
2020/12/07 13:06:36;;;;;;;23.25;12.80;;;7.20;99.90;;;;;;5069602;28;20386;-55
2020/12/07 13:09:03;;;;;;;24.23;12.23;;;7.20;99.90;;;;;;5063905;28;20386;-52
2020/12/07 13:11:32;;;;;;;22.08;12.82;;;7.20;99.90;;;;;;5066832;28;20386;-53
2020/12/07 13:14:00;;;;;;;20.42;12.40;;;7.20;99.90;;;;;;5066908;28;20382;-55